sensor_id;sensor_type;location;lat;lon;timestamp;P1;durP1;ratioP1;P2;durP2;ratioP2
46363;SDS011;32071;49.036;9.344;2023-04-23T00:01:09;7.40;;;6.03;;
46363;SDS011;32071;49.036;9.344;2023-04-23T00:03:36;8.53;;;5.87;;
46363;SDS011;32071;49.036;9.344;2023-04-23T00:06:05;5.87;;;5.33;;
46363;SDS011;32071;49.036;9.344;2023-04-23T00:08:35;7.50;;;6.10;;
46363;SDS011;32071;49.036;9.344;2023-04-23T00:11:05;7.87;;;6.20;;
46363;SDS011;32071;49.036;9.344;2023-04-23T00:13:31;6.83;;;6.10;;
46363;SDS011;32071;49.036;9.344;2023-04-23T00:15:57;7.23;;;5.50;;
46363;SDS011;32071;49.036;9.344;2023-04-23T00:18:24;9.33;;;6.33;;
46363;SDS011;32071;49.036;9.344;2023-04-23T00:20:49;6.83;;;6.10;;
46363;SDS011;32071;49.036;9.344;2023-04-23T00:23:15;6.80;;;5.70;;
46363;SDS011;32071;49.036;9.344;2023-04-23T00:25:41;6.97;;;6.27;;
46363;SDS011;32071;49.036;9.344;2023-04-23T00:28:06;7.63;;;6.30;;
46363;SDS011;32071;49.036;9.344;2023-04-23T00:30:32;6.60;;;5.47;;
46363;SDS011;32071;49.036;9.344;2023-04-23T00:32:58;6.30;;;5.70;;
46363;SDS011;32071;49.036;9.344;2023-04-23T00:35:23;8.40;;;5.73;;
46363;SDS011;32071;49.036;9.344;2023-04-23T00:37:49;7.40;;;6.33;;
46363;SDS011;32071;49.036;9.344;2023-04-23T00:40:14;6.47;;;5.77;;
46363;SDS011;32071;49.036;9.344;2023-04-23T00:42:40;7.80;;;6.23;;
46363;SDS011;32071;49.036;9.344;2023-04-23T00:45:06;9.80;;;6.47;;
46363;SDS011;32071;49.036;9.344;2023-04-23T00:47:32;8.10;;;6.07;;
46363;SDS011;32071;49.036;9.344;2023-04-23T00:49:58;9.07;;;7.27;;
46363;SDS011;32071;49.036;9.344;2023-04-23T00:52:25;7.60;;;6.70;;
46363;SDS011;32071;49.036;9.344;2023-04-23T00:54:53;7.80;;;6.97;;
46363;SDS011;32071;49.036;9.344;2023-04-23T00:57:18;11.57;;;8.10;;
46363;SDS011;32071;49.036;9.344;2023-04-23T00:59:46;12.00;;;8.10;;
46363;SDS011;32071;49.036;9.344;2023-04-23T01:02:11;8.77;;;7.87;;
46363;SDS011;32071;49.036;9.344;2023-04-23T01:04:38;8.50;;;7.37;;
46363;SDS011;32071;49.036;9.344;2023-04-23T01:07:06;9.00;;;7.53;;
46363;SDS011;32071;49.036;9.344;2023-04-23T01:09:32;9.33;;;8.10;;
46363;SDS011;32071;49.036;9.344;2023-04-23T01:11:57;7.80;;;7.00;;
46363;SDS011;32071;49.036;9.344;2023-04-23T01:14:26;8.47;;;7.33;;
46363;SDS011;32071;49.036;9.344;2023-04-23T01:16:52;8.40;;;7.47;;
46363;SDS011;32071;49.036;9.344;2023-04-23T01:19:17;12.23;;;7.63;;
46363;SDS011;32071;49.036;9.344;2023-04-23T01:21:43;13.97;;;8.57;;
46363;SDS011;32071;49.036;9.344;2023-04-23T01:24:09;10.47;;;7.93;;
46363;SDS011;32071;49.036;9.344;2023-04-23T01:26:35;8.93;;;7.83;;
46363;SDS011;32071;49.036;9.344;2023-04-23T01:29:01;9.23;;;7.90;;
46363;SDS011;32071;49.036;9.344;2023-04-23T01:31:27;10.00;;;7.87;;
46363;SDS011;32071;49.036;9.344;2023-04-23T01:33:53;10.27;;;8.13;;
46363;SDS011;32071;49.036;9.344;2023-04-23T01:36:23;11.20;;;8.83;;
46363;SDS011;32071;49.036;9.344;2023-04-23T01:38:49;13.87;;;8.90;;
46363;SDS011;32071;49.036;9.344;2023-04-23T01:41:15;11.07;;;9.27;;
46363;SDS011;32071;49.036;9.344;2023-04-23T01:43:41;12.57;;;8.40;;
46363;SDS011;32071;49.036;9.344;2023-04-23T01:46:08;13.40;;;7.70;;
46363;SDS011;32071;49.036;9.344;2023-04-23T01:48:34;12.53;;;9.90;;
46363;SDS011;32071;49.036;9.344;2023-04-23T01:51:01;11.20;;;8.17;;
46363;SDS011;32071;49.036;9.344;2023-04-23T01:53:26;11.33;;;8.57;;
46363;SDS011;32071;49.036;9.344;2023-04-23T01:55:52;12.10;;;8.93;;
46363;SDS011;32071;49.036;9.344;2023-04-23T01:58:19;11.03;;;8.20;;
46363;SDS011;32071;49.036;9.344;2023-04-23T02:00:45;11.13;;;8.00;;
46363;SDS011;32071;49.036;9.344;2023-04-23T02:03:11;12.17;;;8.07;;
46363;SDS011;32071;49.036;9.344;2023-04-23T02:05:36;10.70;;;8.83;;
46363;SDS011;32071;49.036;9.344;2023-04-23T02:08:05;14.80;;;8.07;;
46363;SDS011;32071;49.036;9.344;2023-04-23T02:10:31;11.37;;;8.40;;
46363;SDS011;32071;49.036;9.344;2023-04-23T02:12:57;13.80;;;8.30;;
46363;SDS011;32071;49.036;9.344;2023-04-23T02:15:24;11.57;;;8.40;;
46363;SDS011;32071;49.036;9.344;2023-04-23T02:17:49;11.93;;;8.63;;
46363;SDS011;32071;49.036;9.344;2023-04-23T02:20:16;9.90;;;8.67;;
46363;SDS011;32071;49.036;9.344;2023-04-23T02:22:42;10.43;;;9.00;;
46363;SDS011;32071;49.036;9.344;2023-04-23T02:25:09;9.43;;;8.07;;
46363;SDS011;32071;49.036;9.344;2023-04-23T02:27:35;11.40;;;8.83;;
46363;SDS011;32071;49.036;9.344;2023-04-23T02:30:02;12.10;;;8.70;;
46363;SDS011;32071;49.036;9.344;2023-04-23T02:32:28;10.80;;;8.00;;
46363;SDS011;32071;49.036;9.344;2023-04-23T02:34:55;12.77;;;8.10;;
46363;SDS011;32071;49.036;9.344;2023-04-23T02:37:22;10.40;;;8.53;;
46363;SDS011;32071;49.036;9.344;2023-04-23T02:39:48;11.13;;;8.13;;
46363;SDS011;32071;49.036;9.344;2023-04-23T02:42:14;12.87;;;8.20;;
46363;SDS011;32071;49.036;9.344;2023-04-23T02:44:39;11.30;;;8.60;;
46363;SDS011;32071;49.036;9.344;2023-04-23T02:47:05;10.17;;;7.80;;
46363;SDS011;32071;49.036;9.344;2023-04-23T02:49:31;11.73;;;8.10;;
46363;SDS011;32071;49.036;9.344;2023-04-23T02:51:56;13.70;;;8.27;;
46363;SDS011;32071;49.036;9.344;2023-04-23T02:54:22;11.43;;;8.00;;
46363;SDS011;32071;49.036;9.344;2023-04-23T02:56:48;11.33;;;8.77;;
46363;SDS011;32071;49.036;9.344;2023-04-23T02:59:13;10.97;;;8.27;;
46363;SDS011;32071;49.036;9.344;2023-04-23T03:01:39;12.07;;;8.97;;
46363;SDS011;32071;49.036;9.344;2023-04-23T03:04:05;13.30;;;8.80;;
46363;SDS011;32071;49.036;9.344;2023-04-23T03:06:31;12.40;;;9.63;;
46363;SDS011;32071;49.036;9.344;2023-04-23T03:08:58;12.10;;;8.40;;
46363;SDS011;32071;49.036;9.344;2023-04-23T03:11:24;12.33;;;8.00;;
46363;SDS011;32071;49.036;9.344;2023-04-23T03:13:49;12.60;;;9.00;;
46363;SDS011;32071;49.036;9.344;2023-04-23T03:16:15;11.33;;;8.80;;
46363;SDS011;32071;49.036;9.344;2023-04-23T03:18:40;9.90;;;7.93;;
46363;SDS011;32071;49.036;9.344;2023-04-23T03:21:06;13.57;;;8.80;;
46363;SDS011;32071;49.036;9.344;2023-04-23T03:23:32;10.40;;;8.10;;
46363;SDS011;32071;49.036;9.344;2023-04-23T03:25:57;10.77;;;7.90;;
46363;SDS011;32071;49.036;9.344;2023-04-23T03:28:23;11.50;;;8.47;;
46363;SDS011;32071;49.036;9.344;2023-04-23T03:30:49;12.03;;;8.50;;
46363;SDS011;32071;49.036;9.344;2023-04-23T03:33:15;11.30;;;8.60;;
46363;SDS011;32071;49.036;9.344;2023-04-23T03:35:40;11.53;;;8.00;;
46363;SDS011;32071;49.036;9.344;2023-04-23T03:38:06;11.97;;;8.17;;
46363;SDS011;32071;49.036;9.344;2023-04-23T03:40:31;9.37;;;7.77;;
46363;SDS011;32071;49.036;9.344;2023-04-23T03:42:57;9.90;;;7.50;;
46363;SDS011;32071;49.036;9.344;2023-04-23T03:45:23;10.50;;;7.70;;
46363;SDS011;32071;49.036;9.344;2023-04-23T03:47:49;9.37;;;7.20;;
46363;SDS011;32071;49.036;9.344;2023-04-23T03:50:15;9.10;;;7.53;;
46363;SDS011;32071;49.036;9.344;2023-04-23T03:52:41;10.10;;;8.03;;
46363;SDS011;32071;49.036;9.344;2023-04-23T03:55:07;9.03;;;6.90;;
46363;SDS011;32071;49.036;9.344;2023-04-23T03:57:34;8.60;;;6.97;;
46363;SDS011;32071;49.036;9.344;2023-04-23T04:00:00;11.60;;;7.80;;
46363;SDS011;32071;49.036;9.344;2023-04-23T04:02:26;8.70;;;7.17;;
46363;SDS011;32071;49.036;9.344;2023-04-23T04:04:52;10.43;;;8.30;;
46363;SDS011;32071;49.036;9.344;2023-04-23T04:07:18;7.97;;;7.10;;
46363;SDS011;32071;49.036;9.344;2023-04-23T04:09:44;11.90;;;7.00;;
46363;SDS011;32071;49.036;9.344;2023-04-23T04:12:11;8.90;;;7.13;;
46363;SDS011;32071;49.036;9.344;2023-04-23T04:14:37;9.30;;;7.53;;
46363;SDS011;32071;49.036;9.344;2023-04-23T04:17:02;8.10;;;6.80;;
46363;SDS011;32071;49.036;9.344;2023-04-23T04:19:28;10.00;;;7.90;;
46363;SDS011;32071;49.036;9.344;2023-04-23T04:21:53;10.03;;;6.60;;
46363;SDS011;32071;49.036;9.344;2023-04-23T04:24:19;13.43;;;7.47;;
46363;SDS011;32071;49.036;9.344;2023-04-23T04:26:45;8.27;;;6.97;;
46363;SDS011;32071;49.036;9.344;2023-04-23T04:29:11;9.67;;;7.13;;
46363;SDS011;32071;49.036;9.344;2023-04-23T04:31:37;9.73;;;7.17;;
46363;SDS011;32071;49.036;9.344;2023-04-23T04:34:03;11.33;;;6.90;;
46363;SDS011;32071;49.036;9.344;2023-04-23T04:36:28;9.60;;;7.20;;
46363;SDS011;32071;49.036;9.344;2023-04-23T04:38:54;7.60;;;6.37;;
46363;SDS011;32071;49.036;9.344;2023-04-23T04:41:22;8.00;;;6.70;;
46363;SDS011;32071;49.036;9.344;2023-04-23T04:43:49;9.33;;;7.20;;
46363;SDS011;32071;49.036;9.344;2023-04-23T04:46:16;11.73;;;7.50;;
46363;SDS011;32071;49.036;9.344;2023-04-23T04:48:43;8.67;;;7.17;;
46363;SDS011;32071;49.036;9.344;2023-04-23T04:51:09;11.43;;;7.30;;
46363;SDS011;32071;49.036;9.344;2023-04-23T04:53:35;9.80;;;7.43;;
46363;SDS011;32071;49.036;9.344;2023-04-23T04:56:00;11.33;;;7.33;;
46363;SDS011;32071;49.036;9.344;2023-04-23T04:58:26;14.07;;;7.63;;
46363;SDS011;32071;49.036;9.344;2023-04-23T05:00:52;10.23;;;7.13;;
46363;SDS011;32071;49.036;9.344;2023-04-23T05:03:18;7.33;;;6.20;;
46363;SDS011;32071;49.036;9.344;2023-04-23T05:05:44;9.57;;;7.30;;
46363;SDS011;32071;49.036;9.344;2023-04-23T05:08:10;10.93;;;7.20;;
46363;SDS011;32071;49.036;9.344;2023-04-23T05:10:36;7.43;;;6.63;;
46363;SDS011;32071;49.036;9.344;2023-04-23T05:13:03;10.40;;;5.70;;
46363;SDS011;32071;49.036;9.344;2023-04-23T05:15:28;9.50;;;6.70;;
46363;SDS011;32071;49.036;9.344;2023-04-23T05:17:54;9.10;;;6.77;;
46363;SDS011;32071;49.036;9.344;2023-04-23T05:20:20;9.53;;;6.87;;
46363;SDS011;32071;49.036;9.344;2023-04-23T05:22:46;7.30;;;6.30;;
46363;SDS011;32071;49.036;9.344;2023-04-23T05:25:12;8.80;;;6.77;;
46363;SDS011;32071;49.036;9.344;2023-04-23T05:27:37;9.00;;;7.03;;
46363;SDS011;32071;49.036;9.344;2023-04-23T05:30:04;10.20;;;7.90;;
46363;SDS011;32071;49.036;9.344;2023-04-23T05:32:32;9.13;;;7.80;;
46363;SDS011;32071;49.036;9.344;2023-04-23T05:34:58;8.87;;;7.10;;
46363;SDS011;32071;49.036;9.344;2023-04-23T05:37:24;9.30;;;6.50;;
46363;SDS011;32071;49.036;9.344;2023-04-23T05:39:50;10.40;;;7.20;;
46363;SDS011;32071;49.036;9.344;2023-04-23T05:42:15;7.33;;;5.83;;
46363;SDS011;32071;49.036;9.344;2023-04-23T05:44:42;12.20;;;6.70;;
46363;SDS011;32071;49.036;9.344;2023-04-23T05:47:08;13.60;;;8.90;;
46363;SDS011;32071;49.036;9.344;2023-04-23T05:49:35;12.83;;;10.17;;
46363;SDS011;32071;49.036;9.344;2023-04-23T05:52:00;16.53;;;12.07;;
46363;SDS011;32071;49.036;9.344;2023-04-23T05:54:27;17.33;;;14.57;;
46363;SDS011;32071;49.036;9.344;2023-04-23T05:56:53;16.97;;;11.70;;
46363;SDS011;32071;49.036;9.344;2023-04-23T05:59:18;18.87;;;11.27;;
46363;SDS011;32071;49.036;9.344;2023-04-23T06:01:44;14.37;;;10.50;;
46363;SDS011;32071;49.036;9.344;2023-04-23T06:04:10;15.90;;;9.80;;
46363;SDS011;32071;49.036;9.344;2023-04-23T06:06:35;12.13;;;9.40;;
46363;SDS011;32071;49.036;9.344;2023-04-23T06:09:01;11.23;;;8.47;;
46363;SDS011;32071;49.036;9.344;2023-04-23T06:11:27;13.43;;;8.60;;
46363;SDS011;32071;49.036;9.344;2023-04-23T06:13:52;11.53;;;8.97;;
46363;SDS011;32071;49.036;9.344;2023-04-23T06:16:18;12.30;;;7.93;;
46363;SDS011;32071;49.036;9.344;2023-04-23T06:18:43;11.40;;;8.00;;
46363;SDS011;32071;49.036;9.344;2023-04-23T06:21:09;8.90;;;6.87;;
46363;SDS011;32071;49.036;9.344;2023-04-23T06:23:34;9.13;;;6.83;;
46363;SDS011;32071;49.036;9.344;2023-04-23T06:26:00;9.93;;;8.10;;
46363;SDS011;32071;49.036;9.344;2023-04-23T06:28:28;13.40;;;6.90;;
46363;SDS011;32071;49.036;9.344;2023-04-23T06:30:53;8.00;;;6.43;;
46363;SDS011;32071;49.036;9.344;2023-04-23T06:33:19;9.20;;;6.70;;
46363;SDS011;32071;49.036;9.344;2023-04-23T06:35:44;6.60;;;5.63;;
46363;SDS011;32071;49.036;9.344;2023-04-23T06:38:11;9.53;;;5.47;;
46363;SDS011;32071;49.036;9.344;2023-04-23T06:40:36;5.40;;;4.90;;
46363;SDS011;32071;49.036;9.344;2023-04-23T06:43:02;12.40;;;5.33;;
46363;SDS011;32071;49.036;9.344;2023-04-23T06:45:29;6.80;;;6.10;;
46363;SDS011;32071;49.036;9.344;2023-04-23T06:47:57;5.47;;;4.87;;
46363;SDS011;32071;49.036;9.344;2023-04-23T06:50:22;5.23;;;4.20;;
46363;SDS011;32071;49.036;9.344;2023-04-23T06:52:48;4.23;;;3.83;;
46363;SDS011;32071;49.036;9.344;2023-04-23T06:55:13;6.33;;;4.73;;
46363;SDS011;32071;49.036;9.344;2023-04-23T06:57:39;5.43;;;4.17;;
46363;SDS011;32071;49.036;9.344;2023-04-23T07:00:05;5.70;;;3.90;;
46363;SDS011;32071;49.036;9.344;2023-04-23T07:02:35;7.47;;;6.70;;
46363;SDS011;32071;49.036;9.344;2023-04-23T07:05:00;5.47;;;4.97;;
46363;SDS011;32071;49.036;9.344;2023-04-23T07:07:26;4.53;;;4.10;;
46363;SDS011;32071;49.036;9.344;2023-04-23T07:09:52;6.67;;;4.13;;
46363;SDS011;32071;49.036;9.344;2023-04-23T07:12:18;6.07;;;4.83;;
46363;SDS011;32071;49.036;9.344;2023-04-23T07:14:43;3.90;;;3.30;;
46363;SDS011;32071;49.036;9.344;2023-04-23T07:17:09;7.63;;;4.83;;
46363;SDS011;32071;49.036;9.344;2023-04-23T07:19:35;10.60;;;8.70;;
46363;SDS011;32071;49.036;9.344;2023-04-23T07:22:01;6.03;;;5.30;;
46363;SDS011;32071;49.036;9.344;2023-04-23T07:24:27;6.00;;;5.40;;
46363;SDS011;32071;49.036;9.344;2023-04-23T07:26:52;3.43;;;3.13;;
46363;SDS011;32071;49.036;9.344;2023-04-23T07:29:19;4.50;;;2.80;;
46363;SDS011;32071;49.036;9.344;2023-04-23T07:31:44;3.27;;;2.70;;
46363;SDS011;32071;49.036;9.344;2023-04-23T07:34:10;3.07;;;2.83;;
46363;SDS011;32071;49.036;9.344;2023-04-23T07:36:36;3.63;;;2.80;;
46363;SDS011;32071;49.036;9.344;2023-04-23T07:39:02;3.37;;;2.50;;
46363;SDS011;32071;49.036;9.344;2023-04-23T07:41:29;3.93;;;2.97;;
46363;SDS011;32071;49.036;9.344;2023-04-23T07:43:55;3.37;;;2.77;;
46363;SDS011;32071;49.036;9.344;2023-04-23T07:46:20;3.13;;;2.90;;
46363;SDS011;32071;49.036;9.344;2023-04-23T07:48:46;3.07;;;2.77;;
46363;SDS011;32071;49.036;9.344;2023-04-23T07:51:12;3.70;;;2.73;;
46363;SDS011;32071;49.036;9.344;2023-04-23T07:53:37;3.03;;;2.33;;
46363;SDS011;32071;49.036;9.344;2023-04-23T07:56:03;3.30;;;2.43;;
46363;SDS011;32071;49.036;9.344;2023-04-23T07:58:29;3.60;;;3.20;;
46363;SDS011;32071;49.036;9.344;2023-04-23T08:00:54;3.43;;;3.13;;
46363;SDS011;32071;49.036;9.344;2023-04-23T08:03:20;2.60;;;2.40;;
46363;SDS011;32071;49.036;9.344;2023-04-23T08:05:46;2.70;;;2.50;;
46363;SDS011;32071;49.036;9.344;2023-04-23T08:08:12;2.63;;;2.43;;
46363;SDS011;32071;49.036;9.344;2023-04-23T08:10:37;2.37;;;2.17;;
46363;SDS011;32071;49.036;9.344;2023-04-23T08:13:03;3.67;;;2.10;;
46363;SDS011;32071;49.036;9.344;2023-04-23T08:15:28;1.83;;;1.70;;
46363;SDS011;32071;49.036;9.344;2023-04-23T08:17:54;2.10;;;2.00;;
46363;SDS011;32071;49.036;9.344;2023-04-23T08:20:20;3.07;;;2.07;;
46363;SDS011;32071;49.036;9.344;2023-04-23T08:22:45;3.77;;;2.50;;
46363;SDS011;32071;49.036;9.344;2023-04-23T08:25:11;2.00;;;1.90;;
46363;SDS011;32071;49.036;9.344;2023-04-23T08:27:37;1.93;;;1.73;;
46363;SDS011;32071;49.036;9.344;2023-04-23T08:30:03;1.67;;;1.57;;
46363;SDS011;32071;49.036;9.344;2023-04-23T08:32:30;3.13;;;1.90;;
46363;SDS011;32071;49.036;9.344;2023-04-23T08:34:56;1.87;;;1.77;;
46363;SDS011;32071;49.036;9.344;2023-04-23T08:37:22;2.30;;;2.10;;
46363;SDS011;32071;49.036;9.344;2023-04-23T08:39:48;3.17;;;2.87;;
46363;SDS011;32071;49.036;9.344;2023-04-23T08:42:26;3.90;;;2.70;;
46363;SDS011;32071;49.036;9.344;2023-04-23T08:45:02;2.87;;;2.67;;
46363;SDS011;32071;49.036;9.344;2023-04-23T08:47:28;3.40;;;2.70;;
46363;SDS011;32071;49.036;9.344;2023-04-23T08:49:56;3.00;;;2.50;;
46363;SDS011;32071;49.036;9.344;2023-04-23T08:52:23;2.27;;;2.07;;
46363;SDS011;32071;49.036;9.344;2023-04-23T08:54:53;3.80;;;2.83;;
46363;SDS011;32071;49.036;9.344;2023-04-23T08:57:24;3.20;;;2.70;;
46363;SDS011;32071;49.036;9.344;2023-04-23T08:59:50;3.03;;;2.73;;
46363;SDS011;32071;49.036;9.344;2023-04-23T09:02:16;2.20;;;2.10;;
46363;SDS011;32071;49.036;9.344;2023-04-23T09:04:43;2.90;;;2.60;;
46363;SDS011;32071;49.036;9.344;2023-04-23T09:07:09;3.40;;;2.70;;
46363;SDS011;32071;49.036;9.344;2023-04-23T09:09:36;2.23;;;2.03;;
46363;SDS011;32071;49.036;9.344;2023-04-23T09:12:06;1.90;;;1.80;;
46363;SDS011;32071;49.036;9.344;2023-04-23T09:14:33;4.53;;;2.63;;
46363;SDS011;32071;49.036;9.344;2023-04-23T09:16:59;2.57;;;2.37;;
46363;SDS011;32071;49.036;9.344;2023-04-23T09:19:26;2.43;;;2.23;;
46363;SDS011;32071;49.036;9.344;2023-04-23T09:21:53;2.83;;;2.37;;
46363;SDS011;32071;49.036;9.344;2023-04-23T09:24:22;2.73;;;2.37;;
46363;SDS011;32071;49.036;9.344;2023-04-23T09:26:49;2.30;;;2.10;;
46363;SDS011;32071;49.036;9.344;2023-04-23T09:29:16;2.47;;;2.27;;
46363;SDS011;32071;49.036;9.344;2023-04-23T09:31:47;2.30;;;2.10;;
46363;SDS011;32071;49.036;9.344;2023-04-23T09:34:20;2.50;;;2.30;;
46363;SDS011;32071;49.036;9.344;2023-04-23T09:36:48;2.83;;;2.63;;
46363;SDS011;32071;49.036;9.344;2023-04-23T09:39:16;2.67;;;2.43;;
46363;SDS011;32071;49.036;9.344;2023-04-23T09:41:43;2.87;;;2.57;;
46363;SDS011;32071;49.036;9.344;2023-04-23T09:44:19;2.50;;;2.30;;
46363;SDS011;32071;49.036;9.344;2023-04-23T09:46:48;2.53;;;2.33;;
46363;SDS011;32071;49.036;9.344;2023-04-23T09:49:14;3.13;;;2.83;;
46363;SDS011;32071;49.036;9.344;2023-04-23T09:51:41;2.40;;;2.20;;
46363;SDS011;32071;49.036;9.344;2023-04-23T09:54:10;3.00;;;2.70;;
46363;SDS011;32071;49.036;9.344;2023-04-23T09:56:41;3.20;;;2.90;;
46363;SDS011;32071;49.036;9.344;2023-04-23T09:59:23;2.87;;;2.63;;
46363;SDS011;32071;49.036;9.344;2023-04-23T10:01:53;4.83;;;2.70;;
46363;SDS011;32071;49.036;9.344;2023-04-23T10:04:20;2.93;;;2.63;;
46363;SDS011;32071;49.036;9.344;2023-04-23T10:06:55;3.37;;;3.07;;
46363;SDS011;32071;49.036;9.344;2023-04-23T10:09:22;3.80;;;2.90;;
46363;SDS011;32071;49.036;9.344;2023-04-23T10:11:52;2.60;;;2.20;;
46363;SDS011;32071;49.036;9.344;2023-04-23T10:14:23;3.20;;;2.70;;
46363;SDS011;32071;49.036;9.344;2023-04-23T10:16:51;2.73;;;2.30;;
46363;SDS011;32071;49.036;9.344;2023-04-23T10:19:22;2.37;;;2.27;;
46363;SDS011;32071;49.036;9.344;2023-04-23T10:21:49;2.20;;;2.10;;
46363;SDS011;32071;49.036;9.344;2023-04-23T10:24:19;2.50;;;2.30;;
46363;SDS011;32071;49.036;9.344;2023-04-23T10:26:48;3.10;;;2.80;;
46363;SDS011;32071;49.036;9.344;2023-04-23T10:29:15;3.53;;;2.90;;
46363;SDS011;32071;49.036;9.344;2023-04-23T10:31:44;2.70;;;2.50;;
46363;SDS011;32071;49.036;9.344;2023-04-23T10:34:10;5.20;;;2.60;;
46363;SDS011;32071;49.036;9.344;2023-04-23T10:36:36;2.63;;;2.43;;
46363;SDS011;32071;49.036;9.344;2023-04-23T10:39:02;2.43;;;2.23;;
46363;SDS011;32071;49.036;9.344;2023-04-23T10:41:35;2.53;;;2.33;;
46363;SDS011;32071;49.036;9.344;2023-04-23T10:44:05;1.87;;;1.77;;
46363;SDS011;32071;49.036;9.344;2023-04-23T10:46:35;2.53;;;2.33;;
46363;SDS011;32071;49.036;9.344;2023-04-23T10:49:10;2.23;;;2.13;;
46363;SDS011;32071;49.036;9.344;2023-04-23T10:51:41;3.83;;;2.20;;
46363;SDS011;32071;49.036;9.344;2023-04-23T10:54:09;2.57;;;2.10;;
46363;SDS011;32071;49.036;9.344;2023-04-23T10:56:38;2.47;;;2.07;;
46363;SDS011;32071;49.036;9.344;2023-04-23T10:59:20;2.43;;;2.17;;
46363;SDS011;32071;49.036;9.344;2023-04-23T11:01:47;2.30;;;2.10;;
46363;SDS011;32071;49.036;9.344;2023-04-23T11:04:24;2.10;;;2.00;;
46363;SDS011;32071;49.036;9.344;2023-04-23T11:06:52;1.93;;;1.83;;
46363;SDS011;32071;49.036;9.344;2023-04-23T11:14:56;2.03;;;1.93;;
46363;SDS011;32071;49.036;9.344;2023-04-23T11:22:40;2.50;;;2.30;;
46363;SDS011;32071;49.036;9.344;2023-04-23T11:25:08;2.37;;;1.80;;
46363;SDS011;32071;49.036;9.344;2023-04-23T11:27:36;1.90;;;1.80;;
46363;SDS011;32071;49.036;9.344;2023-04-23T11:30:04;2.60;;;2.00;;
46363;SDS011;32071;49.036;9.344;2023-04-23T11:32:31;2.10;;;2.00;;
46363;SDS011;32071;49.036;9.344;2023-04-23T11:34:57;2.30;;;2.10;;
46363;SDS011;32071;49.036;9.344;2023-04-23T11:37:26;1.93;;;1.83;;
46363;SDS011;32071;49.036;9.344;2023-04-23T11:39:52;1.80;;;1.70;;
46363;SDS011;32071;49.036;9.344;2023-04-23T11:42:17;2.03;;;1.93;;
46363;SDS011;32071;49.036;9.344;2023-04-23T11:44:46;2.00;;;1.90;;
46363;SDS011;32071;49.036;9.344;2023-04-23T11:47:12;2.03;;;1.93;;
46363;SDS011;32071;49.036;9.344;2023-04-23T11:49:39;2.07;;;1.87;;
46363;SDS011;32071;49.036;9.344;2023-04-23T11:52:06;2.70;;;1.97;;
46363;SDS011;32071;49.036;9.344;2023-04-23T11:54:33;1.83;;;1.73;;
46363;SDS011;32071;49.036;9.344;2023-04-23T11:56:59;1.93;;;1.77;;
46363;SDS011;32071;49.036;9.344;2023-04-23T11:59:25;2.43;;;1.93;;
46363;SDS011;32071;49.036;9.344;2023-04-23T12:01:53;2.03;;;1.77;;
46363;SDS011;32071;49.036;9.344;2023-04-23T12:06:50;1.97;;;1.77;;
46363;SDS011;32071;49.036;9.344;2023-04-23T12:09:17;2.07;;;1.97;;
46363;SDS011;32071;49.036;9.344;2023-04-23T12:11:45;2.00;;;1.90;;
46363;SDS011;32071;49.036;9.344;2023-04-23T12:14:11;1.77;;;1.67;;
46363;SDS011;32071;49.036;9.344;2023-04-23T12:16:39;1.90;;;1.80;;
46363;SDS011;32071;49.036;9.344;2023-04-23T12:19:07;1.60;;;1.43;;
46363;SDS011;32071;49.036;9.344;2023-04-23T12:21:47;1.60;;;1.50;;
46363;SDS011;32071;49.036;9.344;2023-04-23T12:24:20;2.80;;;1.47;;
46363;SDS011;32071;49.036;9.344;2023-04-23T12:26:51;1.67;;;1.40;;
46363;SDS011;32071;49.036;9.344;2023-04-23T12:29:18;3.93;;;1.90;;
46363;SDS011;32071;49.036;9.344;2023-04-23T12:31:45;1.57;;;1.47;;
46363;SDS011;32071;49.036;9.344;2023-04-23T12:34:11;1.77;;;1.67;;
46363;SDS011;32071;49.036;9.344;2023-04-23T12:36:42;1.83;;;1.70;;
46363;SDS011;32071;49.036;9.344;2023-04-23T12:39:19;1.40;;;1.30;;
46363;SDS011;32071;49.036;9.344;2023-04-23T12:41:55;3.20;;;1.63;;
46363;SDS011;32071;49.036;9.344;2023-04-23T12:44:29;1.90;;;1.80;;
46363;SDS011;32071;49.036;9.344;2023-04-23T12:46:59;1.30;;;1.20;;
46363;SDS011;32071;49.036;9.344;2023-04-23T12:49:29;1.60;;;1.50;;
46363;SDS011;32071;49.036;9.344;2023-04-23T12:51:57;1.60;;;1.50;;
46363;SDS011;32071;49.036;9.344;2023-04-23T12:54:30;1.70;;;1.40;;
46363;SDS011;32071;49.036;9.344;2023-04-23T12:56:58;1.60;;;1.50;;
46363;SDS011;32071;49.036;9.344;2023-04-23T12:59:26;1.40;;;1.30;;
46363;SDS011;32071;49.036;9.344;2023-04-23T13:01:52;1.80;;;1.70;;
46363;SDS011;32071;49.036;9.344;2023-04-23T13:04:18;1.40;;;1.30;;
46363;SDS011;32071;49.036;9.344;2023-04-23T13:06:43;1.40;;;1.30;;
46363;SDS011;32071;49.036;9.344;2023-04-23T13:09:09;1.40;;;1.30;;
46363;SDS011;32071;49.036;9.344;2023-04-23T13:11:36;1.20;;;1.10;;
46363;SDS011;32071;49.036;9.344;2023-04-23T13:14:02;1.30;;;1.20;;
46363;SDS011;32071;49.036;9.344;2023-04-23T13:16:28;1.40;;;1.30;;
46363;SDS011;32071;49.036;9.344;2023-04-23T13:18:54;1.70;;;1.60;;
46363;SDS011;32071;49.036;9.344;2023-04-23T13:21:20;1.60;;;1.50;;
46363;SDS011;32071;49.036;9.344;2023-04-23T13:23:46;1.50;;;1.40;;
46363;SDS011;32071;49.036;9.344;2023-04-23T13:26:12;3.17;;;1.60;;
46363;SDS011;32071;49.036;9.344;2023-04-23T13:28:38;1.40;;;1.30;;
46363;SDS011;32071;49.036;9.344;2023-04-23T13:31:03;1.57;;;1.47;;
46363;SDS011;32071;49.036;9.344;2023-04-23T13:33:30;1.33;;;1.33;;
46363;SDS011;32071;49.036;9.344;2023-04-23T13:35:56;1.50;;;1.40;;
46363;SDS011;32071;49.036;9.344;2023-04-23T13:38:26;1.47;;;1.37;;
46363;SDS011;32071;49.036;9.344;2023-04-23T13:40:51;1.90;;;1.70;;
46363;SDS011;32071;49.036;9.344;2023-04-23T13:43:18;1.67;;;1.23;;
46363;SDS011;32071;49.036;9.344;2023-04-23T13:45:44;1.90;;;1.70;;
46363;SDS011;32071;49.036;9.344;2023-04-23T13:48:16;1.40;;;1.30;;
46363;SDS011;32071;49.036;9.344;2023-04-23T13:50:42;1.80;;;1.47;;
46363;SDS011;32071;49.036;9.344;2023-04-23T13:53:08;1.40;;;1.30;;
46363;SDS011;32071;49.036;9.344;2023-04-23T13:55:35;1.40;;;1.30;;
46363;SDS011;32071;49.036;9.344;2023-04-23T13:58:01;1.70;;;1.60;;
46363;SDS011;32071;49.036;9.344;2023-04-23T14:00:30;3.10;;;1.50;;
46363;SDS011;32071;49.036;9.344;2023-04-23T14:02:56;1.63;;;1.53;;
46363;SDS011;32071;49.036;9.344;2023-04-23T14:05:22;2.23;;;1.47;;
46363;SDS011;32071;49.036;9.344;2023-04-23T14:07:47;1.60;;;1.50;;
46363;SDS011;32071;49.036;9.344;2023-04-23T14:10:13;2.60;;;1.63;;
46363;SDS011;32071;49.036;9.344;2023-04-23T14:12:39;1.73;;;1.50;;
46363;SDS011;32071;49.036;9.344;2023-04-23T14:15:05;1.67;;;1.57;;
46363;SDS011;32071;49.036;9.344;2023-04-23T14:17:34;1.33;;;1.23;;
46363;SDS011;32071;49.036;9.344;2023-04-23T14:20:01;1.60;;;1.50;;
46363;SDS011;32071;49.036;9.344;2023-04-23T14:22:29;1.77;;;1.67;;
46363;SDS011;32071;49.036;9.344;2023-04-23T14:24:56;1.57;;;1.47;;
46363;SDS011;32071;49.036;9.344;2023-04-23T14:27:25;1.57;;;1.47;;
46363;SDS011;32071;49.036;9.344;2023-04-23T14:32:19;2.03;;;1.93;;
46363;SDS011;32071;49.036;9.344;2023-04-23T14:34:45;1.50;;;1.40;;
46363;SDS011;32071;49.036;9.344;2023-04-23T14:37:10;2.67;;;1.70;;
46363;SDS011;32071;49.036;9.344;2023-04-23T14:39:36;1.30;;;1.23;;
46363;SDS011;32071;49.036;9.344;2023-04-23T14:42:02;1.70;;;1.60;;
46363;SDS011;32071;49.036;9.344;2023-04-23T14:44:28;1.80;;;1.70;;
46363;SDS011;32071;49.036;9.344;2023-04-23T14:46:54;1.90;;;1.80;;
46363;SDS011;32071;49.036;9.344;2023-04-23T14:49:20;1.87;;;1.70;;
46363;SDS011;32071;49.036;9.344;2023-04-23T14:51:49;1.97;;;1.40;;
46363;SDS011;32071;49.036;9.344;2023-04-23T14:54:19;2.47;;;1.60;;
46363;SDS011;32071;49.036;9.344;2023-04-23T14:56:45;1.67;;;1.57;;